createdAt,value
2024-01-16T00:02:19.649Z,1.42
2024-01-16T00:04:46.518Z,1.67
2024-01-16T00:07:13.438Z,1.23
2024-01-16T00:09:39.997Z,1.45
2024-01-16T00:12:07.271Z,1.30
2024-01-16T00:14:38.193Z,1.17
2024-01-16T00:17:05.122Z,1.52
2024-01-16T00:19:31.788Z,1.73
2024-01-16T00:21:58.734Z,1.50
2024-01-16T00:24:25.279Z,1.67
2024-01-16T00:26:52.398Z,1.23
2024-01-16T00:29:19.083Z,1.50
2024-01-16T00:31:45.674Z,1.65
2024-01-16T00:34:12.198Z,1.35
2024-01-16T00:36:38.771Z,1.45
2024-01-16T00:39:05.523Z,1.30
2024-01-16T00:41:32.410Z,1.30
2024-01-16T00:43:59.074Z,1.40
2024-01-16T00:46:25.726Z,1.60
2024-01-16T00:48:52.449Z,1.02
2024-01-16T00:51:20.749Z,1.33
2024-01-16T00:53:47.424Z,1.40
2024-01-16T00:56:14.425Z,1.30
2024-01-16T00:58:41.411Z,1.60
2024-01-16T01:01:08.253Z,1.33
2024-01-16T01:03:35.079Z,1.50
2024-01-16T01:06:02.485Z,1.13
2024-01-16T01:08:29.240Z,1.42
2024-01-16T01:10:56.083Z,1.00
2024-01-16T01:13:23.295Z,1.10
2024-01-16T01:15:49.931Z,0.95
2024-01-16T01:18:16.671Z,0.90
2024-01-16T01:20:43.340Z,1.23
2024-01-16T01:23:10.897Z,1.30
2024-01-16T01:25:39.537Z,0.98
2024-01-16T01:28:06.448Z,1.10
2024-01-16T01:30:33.636Z,1.00
2024-01-16T01:33:03.121Z,1.30
2024-01-16T01:35:29.794Z,1.15
2024-01-16T01:37:56.452Z,1.00
2024-01-16T01:40:22.974Z,1.10
2024-01-16T01:42:49.633Z,1.00
2024-01-16T01:45:16.225Z,0.90
2024-01-16T01:47:46.128Z,1.00
2024-01-16T01:50:14.725Z,1.00
2024-01-16T01:52:42.369Z,1.10
2024-01-16T01:55:13.255Z,0.98
2024-01-16T01:57:41.023Z,1.05
2024-01-16T02:00:07.862Z,1.00
2024-01-16T02:02:34.768Z,1.10
2024-01-16T02:05:01.793Z,0.98
2024-01-16T02:07:29.330Z,1.15
2024-01-16T02:09:56.185Z,1.08
2024-01-16T02:12:25.687Z,0.80
2024-01-16T02:14:52.722Z,1.10
2024-01-16T02:17:19.253Z,1.02
2024-01-16T02:19:46.059Z,1.02
2024-01-16T02:22:20.843Z,1.00
2024-01-16T02:24:48.073Z,1.00
2024-01-16T02:27:15.186Z,1.02
2024-01-16T02:29:44.413Z,0.88
2024-01-16T02:32:15.000Z,0.85
2024-01-16T02:34:42.590Z,1.30
2024-01-16T02:37:09.861Z,1.02
2024-01-16T02:39:36.787Z,0.82
2024-01-16T02:42:07.033Z,0.82
2024-01-16T02:44:35.370Z,0.95
2024-01-16T02:47:02.639Z,0.88
2024-01-16T02:49:29.605Z,0.73
2024-01-16T02:51:56.409Z,1.05
2024-01-16T02:54:23.669Z,1.23
2024-01-16T02:56:50.443Z,1.00
2024-01-16T02:59:17.120Z,1.60
2024-01-16T03:01:44.049Z,1.65
2024-01-16T03:04:10.723Z,1.50
2024-01-16T03:06:37.454Z,1.45
2024-01-16T03:09:04.042Z,1.50
2024-01-16T03:11:33.713Z,1.02
2024-01-16T03:14:00.907Z,0.90
2024-01-16T03:16:27.953Z,1.40
2024-01-16T03:18:54.513Z,1.20
2024-01-16T03:21:21.127Z,1.50
2024-01-16T03:23:48.086Z,1.52
2024-01-16T03:26:15.148Z,2.20
2024-01-16T03:28:42.185Z,1.75
2024-01-16T03:31:08.843Z,1.95
2024-01-16T03:33:36.186Z,1.70
2024-01-16T03:36:05.867Z,1.70
2024-01-16T03:38:32.474Z,1.58
2024-01-16T03:40:59.010Z,1.98
2024-01-16T03:43:25.768Z,2.10
2024-01-16T03:45:52.626Z,1.55
2024-01-16T03:48:19.545Z,1.67
2024-01-16T03:50:46.644Z,1.33
2024-01-16T03:53:14.243Z,1.48
2024-01-16T03:55:40.921Z,1.45
2024-01-16T03:58:09.665Z,1.27
2024-01-16T04:00:37.735Z,1.17
2024-01-16T04:03:04.747Z,1.30
2024-01-16T04:05:31.555Z,1.15
2024-01-16T04:07:58.533Z,1.38
2024-01-16T04:10:25.203Z,1.52
2024-01-16T04:12:51.843Z,1.30
2024-01-16T04:15:20.248Z,1.30
2024-01-16T04:17:48.375Z,1.60
2024-01-16T04:20:15.104Z,1.10
2024-01-16T04:22:41.750Z,1.33
2024-01-16T04:25:08.315Z,1.42
2024-01-16T04:27:35.001Z,1.48
2024-01-16T04:30:04.573Z,1.58
2024-01-16T04:32:31.393Z,1.75
2024-01-16T04:34:58.319Z,1.33
2024-01-16T04:37:25.330Z,1.73
2024-01-16T04:39:51.939Z,1.52
2024-01-16T04:42:21.258Z,1.85
2024-01-16T04:44:47.758Z,1.58
2024-01-16T04:47:14.358Z,2.33
2024-01-16T04:49:43.587Z,2.03
2024-01-16T04:52:10.070Z,2.03
2024-01-16T04:54:36.611Z,2.30
2024-01-16T04:57:03.545Z,1.65
2024-01-16T04:59:31.932Z,1.73
2024-01-16T05:01:58.920Z,1.85
2024-01-16T05:04:25.573Z,2.20
2024-01-16T05:06:52.958Z,1.92
2024-01-16T05:09:21.335Z,2.22
2024-01-16T05:11:47.928Z,2.13
2024-01-16T05:14:14.606Z,1.83
2024-01-16T05:16:41.325Z,2.20
2024-01-16T05:19:07.940Z,2.08
2024-01-16T05:21:34.712Z,1.88
2024-01-16T05:24:01.334Z,1.92
2024-01-16T05:26:27.909Z,2.20
2024-01-16T05:28:55.024Z,2.10
2024-01-16T05:31:21.765Z,2.47
2024-01-16T05:33:48.679Z,2.75
2024-01-16T05:36:15.409Z,3.10
2024-01-16T05:38:41.961Z,2.15
2024-01-16T05:41:08.582Z,2.55
2024-01-16T05:43:35.402Z,2.70
2024-01-16T05:46:01.984Z,2.55
2024-01-16T05:48:29.001Z,3.30
2024-01-16T05:50:55.770Z,2.30
2024-01-16T05:53:22.432Z,2.60
2024-01-16T05:55:48.901Z,3.33
2024-01-16T05:58:15.492Z,2.17
2024-01-16T06:00:42.296Z,2.40
2024-01-16T06:03:08.850Z,2.72
2024-01-16T06:05:35.738Z,3.10
2024-01-16T06:08:05.759Z,2.47
2024-01-16T06:10:32.289Z,2.58
2024-01-16T06:12:58.934Z,2.72
2024-01-16T06:15:26.248Z,2.58
2024-01-16T06:17:52.846Z,2.70
2024-01-16T06:20:19.697Z,2.70
2024-01-16T06:22:46.433Z,2.88
2024-01-16T06:25:13.054Z,2.53
2024-01-16T06:27:39.570Z,2.22
2024-01-16T06:30:06.604Z,2.70
2024-01-16T06:32:33.383Z,5.05
2024-01-16T06:35:00.194Z,4.45
2024-01-16T06:37:26.777Z,5.00
2024-01-16T06:39:53.358Z,4.32
2024-01-16T06:42:20.862Z,4.68
2024-01-16T06:44:47.456Z,4.63
2024-01-16T06:47:14.169Z,5.07
2024-01-16T06:49:40.752Z,3.10
2024-01-16T06:52:09.046Z,2.30
2024-01-16T06:54:35.649Z,2.22
2024-01-16T06:57:02.529Z,2.92
2024-01-16T06:59:29.344Z,2.22
2024-01-16T07:01:56.438Z,2.08
2024-01-16T07:04:23.171Z,2.08
2024-01-16T07:06:49.924Z,2.15
2024-01-16T07:09:17.704Z,2.78
2024-01-16T07:11:44.546Z,2.22
2024-01-16T07:14:11.709Z,2.40
2024-01-16T07:16:38.926Z,2.17
2024-01-16T07:19:05.970Z,2.28
2024-01-16T07:21:32.632Z,2.65
2024-01-16T07:23:59.174Z,2.78
2024-01-16T07:26:26.016Z,2.65
2024-01-16T07:28:52.693Z,2.65
2024-01-16T07:31:19.161Z,2.63
2024-01-16T07:33:45.935Z,3.13
2024-01-16T07:36:13.079Z,3.40
2024-01-16T07:38:39.674Z,3.25
2024-01-16T07:41:06.773Z,3.35
2024-01-16T07:43:33.973Z,2.95
2024-01-16T07:46:00.570Z,3.20
2024-01-16T07:48:27.720Z,3.08
2024-01-16T07:50:54.788Z,3.53
2024-01-16T07:53:21.421Z,2.92
2024-01-16T07:55:47.984Z,2.85
2024-01-16T07:58:15.167Z,3.25
2024-01-16T08:00:42.415Z,3.45
2024-01-16T08:03:13.179Z,3.33
2024-01-16T08:05:40.065Z,2.92
2024-01-16T08:08:09.532Z,3.30
2024-01-16T08:10:36.357Z,2.88
2024-01-16T08:13:03.161Z,2.92
2024-01-16T08:15:29.666Z,2.70
2024-01-16T08:17:56.337Z,2.92
2024-01-16T08:20:23.058Z,2.83
2024-01-16T08:22:51.238Z,2.40
2024-01-16T08:25:17.761Z,2.78
2024-01-16T08:27:44.861Z,2.50
2024-01-16T08:30:13.516Z,2.60
2024-01-16T08:32:40.279Z,2.50
2024-01-16T08:35:07.243Z,2.03
2024-01-16T08:37:34.435Z,2.83
2024-01-16T08:40:00.980Z,2.38
2024-01-16T08:42:27.944Z,2.63
2024-01-16T08:44:54.640Z,3.05
2024-01-16T08:47:21.205Z,3.40
2024-01-16T08:49:48.356Z,2.88
2024-01-16T08:52:14.878Z,3.55
2024-01-16T08:54:41.357Z,3.17
2024-01-16T08:57:07.937Z,3.05
2024-01-16T08:59:34.522Z,3.40
2024-01-16T09:02:01.397Z,3.50
2024-01-16T09:04:27.937Z,3.55
2024-01-16T09:06:54.706Z,3.58
2024-01-16T09:09:22.224Z,3.80
2024-01-16T09:11:48.751Z,3.28
2024-01-16T09:14:15.545Z,3.53
2024-01-16T09:16:42.492Z,3.63
2024-01-16T09:19:10.530Z,3.45
2024-01-16T09:21:37.205Z,3.55
2024-01-16T09:24:04.159Z,3.50
2024-01-16T09:26:32.994Z,3.15
2024-01-16T09:28:59.998Z,3.75
2024-01-16T09:31:26.508Z,3.40
2024-01-16T09:33:53.156Z,3.45
2024-01-16T09:36:19.699Z,3.72
2024-01-16T09:38:46.245Z,3.05
2024-01-16T09:41:12.886Z,3.50
2024-01-16T09:43:39.868Z,3.53
2024-01-16T09:46:08.268Z,3.10
2024-01-16T09:48:35.296Z,3.33
2024-01-16T09:51:02.174Z,3.83
2024-01-16T09:53:28.808Z,3.65
2024-01-16T09:56:00.274Z,3.17
2024-01-16T09:58:28.616Z,3.83
2024-01-16T10:00:55.510Z,3.15
2024-01-16T10:03:22.626Z,3.63
2024-01-16T10:05:50.009Z,3.53
2024-01-16T10:08:16.660Z,4.05
2024-01-16T10:10:48.769Z,4.03
2024-01-16T10:13:18.505Z,3.95
2024-01-16T10:15:45.218Z,3.95
2024-01-16T10:18:26.255Z,3.53
2024-01-16T10:20:54.470Z,3.35
2024-01-16T10:23:28.917Z,3.13
2024-01-16T10:26:15.249Z,3.85
2024-01-16T10:28:43.186Z,3.53
2024-01-16T10:31:17.706Z,3.22
2024-01-16T10:33:44.887Z,3.30
2024-01-16T10:36:17.642Z,3.45
2024-01-16T10:38:46.155Z,3.53
2024-01-16T10:41:18.565Z,3.17
2024-01-16T10:43:46.154Z,2.78
2024-01-16T10:46:14.837Z,2.85
2024-01-16T10:48:44.398Z,2.50
2024-01-16T10:51:13.272Z,2.67
2024-01-16T10:53:43.854Z,3.00
2024-01-16T10:56:14.807Z,3.17
2024-01-16T10:58:42.766Z,3.45
2024-01-16T11:01:16.339Z,2.58
2024-01-16T11:03:51.139Z,2.72
2024-01-16T11:06:19.469Z,3.00
2024-01-16T11:08:50.272Z,3.00
2024-01-16T11:11:17.800Z,2.45
2024-01-16T11:13:45.621Z,2.50
2024-01-16T11:16:12.626Z,2.30
2024-01-16T11:18:39.625Z,2.35
2024-01-16T11:21:11.901Z,2.10
2024-01-16T11:23:41.326Z,2.72
2024-01-16T11:26:34.937Z,2.33
2024-01-16T11:29:22.043Z,2.30
2024-01-16T11:31:48.613Z,2.30
2024-01-16T11:34:15.320Z,1.98
2024-01-16T11:36:55.487Z,2.20
2024-01-16T11:39:24.159Z,2.08
2024-01-16T11:41:52.665Z,2.28
2024-01-16T11:44:38.305Z,1.80
2024-01-16T11:47:05.797Z,2.17
2024-01-16T11:49:33.143Z,2.17
2024-01-16T11:52:01.639Z,2.55
2024-01-16T11:54:28.492Z,2.63
2024-01-16T11:57:13.766Z,2.60
2024-01-16T11:59:57.589Z,2.60
2024-01-16T12:02:48.912Z,2.25
2024-01-16T12:05:15.606Z,2.42
2024-01-16T12:07:52.464Z,2.95
2024-01-16T12:10:21.517Z,2.80
2024-01-16T12:12:49.418Z,2.70
2024-01-16T12:15:20.867Z,3.35
2024-01-16T12:18:01.481Z,3.03
2024-01-16T12:20:30.817Z,3.05
2024-01-16T12:23:02.762Z,2.97
2024-01-16T12:26:00.017Z,3.38
2024-01-16T12:28:31.185Z,3.50
2024-01-16T12:31:00.149Z,3.47
2024-01-16T12:33:27.243Z,3.97
2024-01-16T12:36:04.419Z,3.70
2024-01-16T12:38:31.258Z,2.85
2024-01-16T12:41:00.076Z,2.58
2024-01-16T12:43:26.688Z,3.25
2024-01-16T12:45:57.278Z,3.55
2024-01-16T12:48:26.245Z,2.92
2024-01-16T12:51:13.398Z,3.63
2024-01-16T12:53:41.517Z,3.00
2024-01-16T12:56:12.090Z,2.63
2024-01-16T12:58:38.870Z,3.70
2024-01-16T13:01:35.002Z,2.45
2024-01-16T13:04:07.148Z,2.63
2024-01-16T13:06:33.928Z,2.67
2024-01-16T13:09:16.929Z,3.05
2024-01-16T13:11:52.639Z,2.90
2024-01-16T13:14:23.691Z,2.90
2024-01-16T13:16:51.705Z,2.83
2024-01-16T13:19:22.223Z,2.53
2024-01-16T13:21:50.504Z,2.75
2024-01-16T13:24:19.157Z,2.88
2024-01-16T13:26:46.019Z,3.03
2024-01-16T13:29:13.199Z,2.40
2024-01-16T13:31:40.035Z,2.92
2024-01-16T13:34:13.526Z,3.17
2024-01-16T13:36:54.386Z,2.78
2024-01-16T13:39:27.382Z,3.30
2024-01-16T13:41:55.022Z,2.58
2024-01-16T13:44:21.703Z,2.80
2024-01-16T13:46:57.722Z,2.78
2024-01-16T13:49:34.666Z,2.80
2024-01-16T13:52:01.652Z,2.83
2024-01-16T13:54:28.231Z,2.28
2024-01-16T13:57:03.217Z,2.70
2024-01-16T13:59:34.480Z,2.88
2024-01-16T14:02:02.204Z,2.22
2024-01-16T14:04:28.808Z,2.85
2024-01-16T14:07:10.155Z,2.17
2024-01-16T14:09:42.585Z,2.72
2024-01-16T14:12:10.983Z,2.25
2024-01-16T14:14:39.808Z,2.72
2024-01-16T14:17:06.479Z,2.50
2024-01-16T14:19:35.197Z,3.10
2024-01-16T14:22:01.825Z,2.33
2024-01-16T14:24:28.319Z,3.05
2024-01-16T14:26:54.947Z,2.75
2024-01-16T14:29:21.554Z,2.50
2024-01-16T14:31:50.560Z,2.75
2024-01-16T14:34:19.594Z,2.95
2024-01-16T14:36:47.193Z,2.92
2024-01-16T14:39:22.958Z,2.88
2024-01-16T14:41:49.508Z,3.17
2024-01-16T14:44:16.059Z,2.90
2024-01-16T14:46:47.952Z,2.97
2024-01-16T14:49:17.538Z,2.60
2024-01-16T14:51:44.355Z,3.20
2024-01-16T14:54:14.580Z,2.97
2024-01-16T14:56:41.273Z,3.25
2024-01-16T14:59:14.111Z,3.22
2024-01-16T15:01:42.469Z,3.85
2024-01-16T15:04:09.228Z,2.90
2024-01-16T15:06:36.062Z,2.67
2024-01-16T15:09:03.110Z,2.60
2024-01-16T15:11:29.827Z,2.83
2024-01-16T15:13:58.641Z,3.33
2024-01-16T15:16:26.222Z,3.05
2024-01-16T15:18:53.042Z,3.75
2024-01-16T15:21:20.066Z,2.63
2024-01-16T15:23:47.252Z,3.20
2024-01-16T15:26:20.195Z,3.15
2024-01-16T15:28:49.179Z,2.97
2024-01-16T15:31:16.978Z,3.75
2024-01-16T15:33:43.780Z,3.83
2024-01-16T15:36:10.438Z,3.58
2024-01-16T15:38:37.762Z,6.80
2024-01-16T15:41:04.497Z,4.78
2024-01-16T15:43:30.965Z,3.13
2024-01-16T15:45:58.301Z,5.53
2024-01-16T15:48:25.501Z,4.18
2024-01-16T15:50:52.259Z,4.20
2024-01-16T15:53:19.194Z,4.65
2024-01-16T15:55:45.761Z,4.43
2024-01-16T15:58:12.582Z,4.22
2024-01-16T16:00:41.706Z,4.47
2024-01-16T16:03:08.483Z,4.25
2024-01-16T16:05:35.499Z,4.78
2024-01-16T16:08:02.427Z,4.10
2024-01-16T16:10:29.255Z,4.30
2024-01-16T16:12:56.011Z,8.32
2024-01-16T16:15:23.173Z,5.22
2024-01-16T16:17:50.141Z,4.70
2024-01-16T16:20:17.074Z,5.72
2024-01-16T16:22:45.371Z,5.93
2024-01-16T16:25:13.460Z,5.22
2024-01-16T16:27:40.111Z,5.43
2024-01-16T16:30:07.254Z,4.55
2024-01-16T16:32:33.986Z,4.53
2024-01-16T16:35:00.617Z,5.13
2024-01-16T16:37:27.347Z,4.95
2024-01-16T16:39:54.197Z,5.15
2024-01-16T16:42:23.708Z,4.30
2024-01-16T16:44:50.398Z,4.78
2024-01-16T16:47:18.171Z,5.13
2024-01-16T16:49:45.122Z,5.07
2024-01-16T16:52:11.641Z,5.65
2024-01-16T16:54:38.196Z,5.82
2024-01-16T16:57:04.846Z,5.28
2024-01-16T16:59:31.432Z,4.20
2024-01-16T17:01:59.535Z,4.88
2024-01-16T17:04:27.462Z,5.35
2024-01-16T17:06:56.592Z,5.50
2024-01-16T17:09:23.800Z,5.32
2024-01-16T17:11:50.805Z,5.45
2024-01-16T17:14:17.762Z,4.75
2024-01-16T17:16:44.819Z,5.50
2024-01-16T17:19:12.432Z,5.63
2024-01-16T17:21:40.187Z,5.43
2024-01-16T17:24:07.414Z,6.22
2024-01-16T17:26:35.639Z,5.85
2024-01-16T17:29:02.433Z,5.03
2024-01-16T17:31:30.194Z,5.40
2024-01-16T17:33:58.587Z,5.32
2024-01-16T17:36:25.542Z,6.97
2024-01-16T17:38:57.368Z,5.50
2024-01-16T17:41:27.528Z,5.93
2024-01-16T17:43:55.290Z,6.38
2024-01-16T17:46:22.436Z,5.93
2024-01-16T17:48:50.292Z,4.47
2024-01-16T17:51:17.247Z,6.28
2024-01-16T17:53:44.771Z,5.95
2024-01-16T17:56:16.469Z,5.90
2024-01-16T17:58:44.096Z,6.25
2024-01-16T18:01:12.847Z,6.25
2024-01-16T18:03:45.146Z,5.28
2024-01-16T18:06:17.616Z,5.43
2024-01-16T18:08:44.878Z,5.40
2024-01-16T18:11:13.769Z,4.70
2024-01-16T18:13:40.783Z,4.20
2024-01-16T18:16:08.358Z,4.70
2024-01-16T18:18:35.276Z,5.80
2024-01-16T18:21:02.145Z,6.68
2024-01-16T18:23:29.291Z,5.97
2024-01-16T18:25:58.768Z,6.93
2024-01-16T18:28:27.275Z,5.90
2024-01-16T18:30:54.009Z,5.95
2024-01-16T18:33:20.810Z,5.35
2024-01-16T18:35:47.905Z,6.20
2024-01-16T18:38:20.553Z,6.43
2024-01-16T18:40:47.776Z,5.53
2024-01-16T18:43:16.190Z,6.35
2024-01-16T18:45:43.000Z,5.70
2024-01-16T18:48:10.031Z,5.35
2024-01-16T18:50:36.671Z,5.60
2024-01-16T18:53:03.365Z,5.88
2024-01-16T18:55:30.134Z,6.32
2024-01-16T18:58:03.016Z,5.47
2024-01-16T19:00:29.665Z,6.38
2024-01-16T19:02:57.130Z,6.63
2024-01-16T19:05:24.148Z,6.45
2024-01-16T19:07:51.202Z,7.03
2024-01-16T19:10:18.039Z,6.70
2024-01-16T19:12:48.569Z,7.00
2024-01-16T19:15:19.144Z,6.50
2024-01-16T19:17:49.894Z,5.88
2024-01-16T19:20:22.891Z,5.93
2024-01-16T19:22:50.845Z,6.35
2024-01-16T19:25:17.658Z,5.55
2024-01-16T19:27:49.161Z,6.68
2024-01-16T19:30:20.145Z,6.13
2024-01-16T19:32:48.122Z,6.80
2024-01-16T19:35:16.046Z,7.18
2024-01-16T19:37:42.743Z,7.45
2024-01-16T19:40:17.852Z,7.82
2024-01-16T19:42:44.587Z,7.82
2024-01-16T19:45:12.698Z,8.90
2024-01-16T19:47:41.644Z,7.25
2024-01-16T19:50:20.708Z,7.63
2024-01-16T19:52:52.650Z,7.47
2024-01-16T19:55:22.489Z,7.63
2024-01-16T19:57:49.261Z,7.88
2024-01-16T20:00:18.875Z,7.40
2024-01-16T20:02:45.967Z,8.00
2024-01-16T20:05:19.777Z,7.00
2024-01-16T20:07:47.284Z,7.05
2024-01-16T20:10:15.228Z,8.00
2024-01-16T20:12:46.243Z,6.85
2024-01-16T20:15:14.615Z,7.72
2024-01-16T20:17:45.433Z,6.65
2024-01-16T20:20:14.566Z,6.45
2024-01-16T20:22:42.373Z,6.90
2024-01-16T20:25:13.956Z,6.80
2024-01-16T20:27:41.241Z,6.07
2024-01-16T20:30:09.803Z,6.60
2024-01-16T20:32:40.477Z,5.28
2024-01-16T20:35:08.733Z,5.75
2024-01-16T20:37:35.576Z,5.75
2024-01-16T20:40:02.592Z,5.82
2024-01-16T20:42:29.169Z,5.65
2024-01-16T20:44:55.867Z,5.57
2024-01-16T20:47:22.690Z,5.60
2024-01-16T20:49:49.469Z,5.72
2024-01-16T20:52:19.756Z,5.22
2024-01-16T20:54:46.289Z,5.05
2024-01-16T20:57:12.771Z,5.43
2024-01-16T20:59:40.408Z,5.53
2024-01-16T21:02:07.871Z,5.05
2024-01-16T21:04:34.896Z,4.57
2024-01-16T21:07:05.722Z,4.60
2024-01-16T21:09:32.606Z,5.18
2024-01-16T21:12:02.092Z,4.95
2024-01-16T21:14:30.860Z,4.25
2024-01-16T21:16:58.229Z,4.57
2024-01-16T21:19:25.054Z,4.90
2024-01-16T21:21:52.258Z,4.72
2024-01-16T21:24:20.189Z,5.57
2024-01-16T21:26:47.597Z,4.22
2024-01-16T21:29:14.236Z,4.10
2024-01-16T21:31:49.075Z,4.70
2024-01-16T21:34:17.870Z,4.45
2024-01-16T21:36:48.247Z,3.95
2024-01-16T21:39:15.882Z,3.92
2024-01-16T21:41:44.245Z,4.38
2024-01-16T21:44:12.010Z,3.80
2024-01-16T21:46:39.967Z,4.13
2024-01-16T21:49:06.640Z,3.95
2024-01-16T21:51:33.753Z,3.83
2024-01-16T21:54:02.697Z,3.80
2024-01-16T21:56:29.587Z,4.10
2024-01-16T21:58:57.821Z,3.58
2024-01-16T22:01:24.664Z,3.33
2024-01-16T22:03:51.511Z,3.65
2024-01-16T22:06:24.345Z,3.65
2024-01-16T22:08:52.083Z,3.45
2024-01-16T22:11:19.146Z,3.67
2024-01-16T22:13:46.672Z,2.88
2024-01-16T22:16:13.647Z,3.58
2024-01-16T22:18:42.300Z,3.80
2024-01-16T22:21:10.681Z,3.22
2024-01-16T22:23:37.245Z,3.63
2024-01-16T22:26:04.618Z,3.17
2024-01-16T22:28:31.597Z,3.30
2024-01-16T22:30:58.486Z,3.25
2024-01-16T22:33:25.510Z,3.92
2024-01-16T22:35:53.233Z,3.58
2024-01-16T22:38:19.892Z,3.13
2024-01-16T22:40:46.733Z,4.35
2024-01-16T22:43:13.494Z,3.22
2024-01-16T22:45:40.596Z,3.05
2024-01-16T22:48:11.953Z,3.30
2024-01-16T22:50:43.301Z,3.20
2024-01-16T22:53:10.037Z,3.10
2024-01-16T22:55:36.707Z,3.97
2024-01-16T22:58:06.416Z,3.90
2024-01-16T23:00:40.266Z,3.63
2024-01-16T23:03:12.881Z,3.95
2024-01-16T23:05:40.417Z,3.85
2024-01-16T23:08:11.732Z,3.78
2024-01-16T23:10:38.870Z,3.50
2024-01-16T23:13:05.498Z,3.83
2024-01-16T23:15:32.317Z,5.00
2024-01-16T23:17:59.036Z,4.18
2024-01-16T23:20:28.781Z,4.82
2024-01-16T23:22:56.824Z,4.03
2024-01-16T23:25:23.764Z,4.30
2024-01-16T23:27:50.788Z,4.53
2024-01-16T23:30:19.398Z,4.50
2024-01-16T23:32:46.439Z,4.45
2024-01-16T23:35:13.179Z,4.28
2024-01-16T23:37:41.721Z,4.55
2024-01-16T23:40:10.610Z,4.63
2024-01-16T23:42:39.364Z,5.32
2024-01-16T23:45:14.424Z,5.10
2024-01-16T23:47:50.342Z,4.53
2024-01-16T23:50:18.813Z,4.93
2024-01-16T23:52:45.836Z,4.43
2024-01-16T23:55:16.261Z,5.38
2024-01-16T23:57:42.803Z,4.40
